sensor_id;sensor_type;location;lat;lon;timestamp;P1;durP1;ratioP1;P2;durP2;ratioP2
7767;SDS011;3928;42.626;23.382;2022-12-10T00:02:08;23.10;;;12.57;;
7767;SDS011;3928;42.626;23.382;2022-12-10T00:04:36;28.43;;;11.07;;
7767;SDS011;3928;42.626;23.382;2022-12-10T00:07:03;26.47;;;11.87;;
7767;SDS011;3928;42.626;23.382;2022-12-10T00:09:30;20.07;;;10.90;;
7767;SDS011;3928;42.626;23.382;2022-12-10T00:11:57;21.03;;;11.33;;
7767;SDS011;3928;42.626;23.382;2022-12-10T00:14:24;22.03;;;11.27;;
7767;SDS011;3928;42.626;23.382;2022-12-10T00:16:51;28.17;;;11.17;;
7767;SDS011;3928;42.626;23.382;2022-12-10T00:19:18;20.77;;;10.77;;
7767;SDS011;3928;42.626;23.382;2022-12-10T00:21:46;24.50;;;10.23;;
7767;SDS011;3928;42.626;23.382;2022-12-10T00:24:13;32.30;;;11.07;;
7767;SDS011;3928;42.626;23.382;2022-12-10T00:26:40;20.37;;;11.47;;
7767;SDS011;3928;42.626;23.382;2022-12-10T00:29:07;24.17;;;10.80;;
7767;SDS011;3928;42.626;23.382;2022-12-10T00:31:36;25.03;;;10.47;;
7767;SDS011;3928;42.626;23.382;2022-12-10T00:34:05;20.03;;;10.00;;
7767;SDS011;3928;42.626;23.382;2022-12-10T00:36:33;23.40;;;10.43;;
7767;SDS011;3928;42.626;23.382;2022-12-10T00:39:03;16.70;;;10.30;;
7767;SDS011;3928;42.626;23.382;2022-12-10T00:41:30;15.87;;;10.57;;
7767;SDS011;3928;42.626;23.382;2022-12-10T00:43:57;14.37;;;8.93;;
7767;SDS011;3928;42.626;23.382;2022-12-10T00:46:25;26.97;;;10.77;;
7767;SDS011;3928;42.626;23.382;2022-12-10T00:48:52;25.33;;;10.63;;
7767;SDS011;3928;42.626;23.382;2022-12-10T00:51:20;27.07;;;10.30;;
7767;SDS011;3928;42.626;23.382;2022-12-10T00:53:48;20.37;;;10.93;;
7767;SDS011;3928;42.626;23.382;2022-12-10T00:56:18;25.30;;;10.47;;
7767;SDS011;3928;42.626;23.382;2022-12-10T00:58:47;23.07;;;9.27;;
7767;SDS011;3928;42.626;23.382;2022-12-10T01:01:15;18.37;;;9.50;;
7767;SDS011;3928;42.626;23.382;2022-12-10T01:03:44;19.57;;;10.53;;
7767;SDS011;3928;42.626;23.382;2022-12-10T01:06:13;14.33;;;9.47;;
7767;SDS011;3928;42.626;23.382;2022-12-10T01:08:41;24.07;;;10.43;;
7767;SDS011;3928;42.626;23.382;2022-12-10T01:11:09;22.63;;;10.97;;
7767;SDS011;3928;42.626;23.382;2022-12-10T01:13:39;18.30;;;10.23;;
7767;SDS011;3928;42.626;23.382;2022-12-10T01:16:07;22.37;;;11.03;;
7767;SDS011;3928;42.626;23.382;2022-12-10T01:18:35;18.50;;;10.27;;
7767;SDS011;3928;42.626;23.382;2022-12-10T01:21:02;20.93;;;10.97;;
7767;SDS011;3928;42.626;23.382;2022-12-10T01:23:31;25.63;;;11.63;;
7767;SDS011;3928;42.626;23.382;2022-12-10T01:25:59;20.80;;;9.67;;
7767;SDS011;3928;42.626;23.382;2022-12-10T01:28:30;11.33;;;7.60;;
7767;SDS011;3928;42.626;23.382;2022-12-10T01:31:02;16.07;;;8.47;;
7767;SDS011;3928;42.626;23.382;2022-12-10T01:33:30;22.27;;;8.80;;
7767;SDS011;3928;42.626;23.382;2022-12-10T01:36:00;18.67;;;8.83;;
7767;SDS011;3928;42.626;23.382;2022-12-10T01:38:28;20.30;;;8.70;;
7767;SDS011;3928;42.626;23.382;2022-12-10T01:40:55;24.60;;;8.07;;
7767;SDS011;3928;42.626;23.382;2022-12-10T01:43:22;16.93;;;7.90;;
7767;SDS011;3928;42.626;23.382;2022-12-10T01:45:49;8.03;;;4.93;;
7767;SDS011;3928;42.626;23.382;2022-12-10T01:48:17;7.40;;;4.63;;
7767;SDS011;3928;42.626;23.382;2022-12-10T01:50:44;6.23;;;4.40;;
7767;SDS011;3928;42.626;23.382;2022-12-10T01:53:11;12.63;;;4.57;;
7767;SDS011;3928;42.626;23.382;2022-12-10T01:55:41;10.33;;;4.57;;
7767;SDS011;3928;42.626;23.382;2022-12-10T01:58:11;7.93;;;4.30;;
7767;SDS011;3928;42.626;23.382;2022-12-10T02:00:41;6.05;;;3.78;;
7767;SDS011;3928;42.626;23.382;2022-12-10T02:03:14;7.37;;;3.80;;
7767;SDS011;3928;42.626;23.382;2022-12-10T02:05:49;15.53;;;4.13;;
7767;SDS011;3928;42.626;23.382;2022-12-10T02:08:24;9.77;;;5.90;;
7767;SDS011;3928;42.626;23.382;2022-12-10T02:10:57;9.85;;;4.10;;
7767;SDS011;3928;42.626;23.382;2022-12-10T02:13:33;6.63;;;4.00;;
7767;SDS011;3928;42.626;23.382;2022-12-10T02:16:08;6.72;;;3.05;;
7767;SDS011;3928;42.626;23.382;2022-12-10T02:18:42;6.95;;;3.85;;
7767;SDS011;3928;42.626;23.382;2022-12-10T02:21:15;11.25;;;3.72;;
7767;SDS011;3928;42.626;23.382;2022-12-10T02:23:49;11.77;;;5.68;;
7767;SDS011;3928;42.626;23.382;2022-12-10T02:26:20;9.05;;;5.38;;
7767;SDS011;3928;42.626;23.382;2022-12-10T02:28:51;15.98;;;8.57;;
7767;SDS011;3928;42.626;23.382;2022-12-10T02:31:25;18.60;;;8.77;;
7767;SDS011;3928;42.626;23.382;2022-12-10T02:33:56;15.53;;;7.80;;
7767;SDS011;3928;42.626;23.382;2022-12-10T02:36:27;15.23;;;6.63;;
7767;SDS011;3928;42.626;23.382;2022-12-10T02:38:59;9.50;;;5.53;;
7767;SDS011;3928;42.626;23.382;2022-12-10T02:41:29;7.87;;;4.23;;
7767;SDS011;3928;42.626;23.382;2022-12-10T02:44:01;9.83;;;3.90;;
7767;SDS011;3928;42.626;23.382;2022-12-10T02:46:33;11.57;;;3.80;;
7767;SDS011;3928;42.626;23.382;2022-12-10T02:49:03;8.67;;;3.67;;
7767;SDS011;3928;42.626;23.382;2022-12-10T02:51:33;11.85;;;4.53;;
7767;SDS011;3928;42.626;23.382;2022-12-10T02:54:01;6.10;;;3.13;;
7767;SDS011;3928;42.626;23.382;2022-12-10T02:56:30;7.85;;;3.75;;
7767;SDS011;3928;42.626;23.382;2022-12-10T02:59:04;8.45;;;3.00;;
7767;SDS011;3928;42.626;23.382;2022-12-10T03:01:43;12.68;;;3.70;;
7767;SDS011;3928;42.626;23.382;2022-12-10T03:04:17;8.23;;;2.83;;
7767;SDS011;3928;42.626;23.382;2022-12-10T03:06:50;7.28;;;3.13;;
7767;SDS011;3928;42.626;23.382;2022-12-10T03:09:21;9.20;;;3.28;;
7767;SDS011;3928;42.626;23.382;2022-12-10T03:11:50;10.38;;;3.15;;
7767;SDS011;3928;42.626;23.382;2022-12-10T03:14:25;10.07;;;3.03;;
7767;SDS011;3928;42.626;23.382;2022-12-10T03:16:57;6.60;;;3.30;;
7767;SDS011;3928;42.626;23.382;2022-12-10T03:19:26;7.90;;;2.92;;
7767;SDS011;3928;42.626;23.382;2022-12-10T03:21:58;4.25;;;2.78;;
7767;SDS011;3928;42.626;23.382;2022-12-10T03:24:28;8.40;;;2.90;;
7767;SDS011;3928;42.626;23.382;2022-12-10T03:26:56;3.45;;;2.75;;
7767;SDS011;3928;42.626;23.382;2022-12-10T03:29:24;6.00;;;3.13;;
7767;SDS011;3928;42.626;23.382;2022-12-10T03:31:57;9.50;;;2.60;;
7767;SDS011;3928;42.626;23.382;2022-12-10T03:34:25;6.35;;;2.42;;
7767;SDS011;3928;42.626;23.382;2022-12-10T03:36:53;2.60;;;2.38;;
7767;SDS011;3928;42.626;23.382;2022-12-10T03:39:21;4.03;;;2.58;;
7767;SDS011;3928;42.626;23.382;2022-12-10T03:41:49;6.22;;;2.40;;
7767;SDS011;3928;42.626;23.382;2022-12-10T03:44:26;6.75;;;2.10;;
7767;SDS011;3928;42.626;23.382;2022-12-10T03:46:54;4.97;;;2.35;;
7767;SDS011;3928;42.626;23.382;2022-12-10T03:49:24;5.75;;;2.88;;
7767;SDS011;3928;42.626;23.382;2022-12-10T03:51:51;6.00;;;2.25;;
7767;SDS011;3928;42.626;23.382;2022-12-10T03:54:18;5.45;;;2.40;;
7767;SDS011;3928;42.626;23.382;2022-12-10T03:56:45;6.75;;;2.00;;
7767;SDS011;3928;42.626;23.382;2022-12-10T03:59:12;3.15;;;2.00;;
7767;SDS011;3928;42.626;23.382;2022-12-10T04:01:39;4.78;;;1.80;;
7767;SDS011;3928;42.626;23.382;2022-12-10T04:04:06;3.60;;;2.50;;
7767;SDS011;3928;42.626;23.382;2022-12-10T04:06:36;4.75;;;2.10;;
7767;SDS011;3928;42.626;23.382;2022-12-10T04:09:04;6.10;;;1.90;;
7767;SDS011;3928;42.626;23.382;2022-12-10T04:11:31;3.40;;;2.20;;
7767;SDS011;3928;42.626;23.382;2022-12-10T04:13:58;3.22;;;2.08;;
7767;SDS011;3928;42.626;23.382;2022-12-10T04:16:42;4.93;;;2.88;;
7767;SDS011;3928;42.626;23.382;2022-12-10T04:19:10;4.95;;;2.20;;
7767;SDS011;3928;42.626;23.382;2022-12-10T04:21:39;3.33;;;1.77;;
7767;SDS011;3928;42.626;23.382;2022-12-10T04:24:25;6.22;;;2.55;;
7767;SDS011;3928;42.626;23.382;2022-12-10T04:27:13;6.80;;;2.08;;
7767;SDS011;3928;42.626;23.382;2022-12-10T04:29:43;7.05;;;2.17;;
7767;SDS011;3928;42.626;23.382;2022-12-10T04:32:10;5.95;;;2.55;;
7767;SDS011;3928;42.626;23.382;2022-12-10T04:34:37;4.53;;;2.10;;
7767;SDS011;3928;42.626;23.382;2022-12-10T04:37:06;4.00;;;2.28;;
7767;SDS011;3928;42.626;23.382;2022-12-10T04:39:33;2.17;;;1.90;;
7767;SDS011;3928;42.626;23.382;2022-12-10T04:42:00;11.05;;;5.00;;
7767;SDS011;3928;42.626;23.382;2022-12-10T04:44:27;7.20;;;5.32;;
7767;SDS011;3928;42.626;23.382;2022-12-10T04:46:54;7.57;;;5.10;;
7767;SDS011;3928;42.626;23.382;2022-12-10T04:49:21;12.33;;;5.77;;
7767;SDS011;3928;42.626;23.382;2022-12-10T04:51:49;12.07;;;6.20;;
7767;SDS011;3928;42.626;23.382;2022-12-10T04:54:19;9.10;;;6.15;;
7767;SDS011;3928;42.626;23.382;2022-12-10T04:56:46;11.67;;;6.87;;
7767;SDS011;3928;42.626;23.382;2022-12-10T04:59:14;9.73;;;5.87;;
7767;SDS011;3928;42.626;23.382;2022-12-10T05:01:41;10.80;;;6.83;;
7767;SDS011;3928;42.626;23.382;2022-12-10T05:04:10;20.67;;;11.67;;
7767;SDS011;3928;42.626;23.382;2022-12-10T05:06:38;16.97;;;8.20;;
7767;SDS011;3928;42.626;23.382;2022-12-10T05:09:06;16.37;;;6.93;;
7767;SDS011;3928;42.626;23.382;2022-12-10T05:11:34;14.90;;;6.90;;
7767;SDS011;3928;42.626;23.382;2022-12-10T05:14:02;11.37;;;6.07;;
7767;SDS011;3928;42.626;23.382;2022-12-10T05:16:29;13.93;;;6.33;;
7767;SDS011;3928;42.626;23.382;2022-12-10T05:18:58;11.33;;;6.40;;
7767;SDS011;3928;42.626;23.382;2022-12-10T05:21:26;13.83;;;6.70;;
7767;SDS011;3928;42.626;23.382;2022-12-10T05:24:14;13.63;;;6.67;;
7767;SDS011;3928;42.626;23.382;2022-12-10T05:26:41;13.83;;;6.67;;
7767;SDS011;3928;42.626;23.382;2022-12-10T05:29:08;9.63;;;6.63;;
7767;SDS011;3928;42.626;23.382;2022-12-10T05:31:36;13.07;;;6.43;;
7767;SDS011;3928;42.626;23.382;2022-12-10T05:34:03;11.50;;;6.07;;
7767;SDS011;3928;42.626;23.382;2022-12-10T05:36:30;11.90;;;7.00;;
7767;SDS011;3928;42.626;23.382;2022-12-10T05:38:58;12.70;;;7.33;;
7767;SDS011;3928;42.626;23.382;2022-12-10T05:41:26;10.20;;;7.30;;
7767;SDS011;3928;42.626;23.382;2022-12-10T05:43:56;15.20;;;6.93;;
7767;SDS011;3928;42.626;23.382;2022-12-10T05:46:25;27.03;;;12.77;;
7767;SDS011;3928;42.626;23.382;2022-12-10T05:48:53;37.50;;;21.33;;
7767;SDS011;3928;42.626;23.382;2022-12-10T05:51:21;18.87;;;10.33;;
7767;SDS011;3928;42.626;23.382;2022-12-10T05:53:50;9.10;;;6.43;;
7767;SDS011;3928;42.626;23.382;2022-12-10T05:56:18;11.00;;;7.03;;
7767;SDS011;3928;42.626;23.382;2022-12-10T05:58:47;12.37;;;8.00;;
7767;SDS011;3928;42.626;23.382;2022-12-10T06:01:17;13.50;;;7.00;;
7767;SDS011;3928;42.626;23.382;2022-12-10T06:03:45;15.43;;;8.33;;
7767;SDS011;3928;42.626;23.382;2022-12-10T06:06:13;14.60;;;7.90;;
7767;SDS011;3928;42.626;23.382;2022-12-10T06:08:40;10.97;;;7.27;;
7767;SDS011;3928;42.626;23.382;2022-12-10T06:11:08;12.27;;;7.57;;
7767;SDS011;3928;42.626;23.382;2022-12-10T06:13:37;15.67;;;7.43;;
7767;SDS011;3928;42.626;23.382;2022-12-10T06:16:04;12.13;;;7.77;;
7767;SDS011;3928;42.626;23.382;2022-12-10T06:18:33;15.73;;;7.63;;
7767;SDS011;3928;42.626;23.382;2022-12-10T06:21:02;15.10;;;8.30;;
7767;SDS011;3928;42.626;23.382;2022-12-10T06:23:30;16.07;;;8.20;;
7767;SDS011;3928;42.626;23.382;2022-12-10T06:25:56;15.97;;;10.33;;
7767;SDS011;3928;42.626;23.382;2022-12-10T06:28:23;14.73;;;7.10;;
7767;SDS011;3928;42.626;23.382;2022-12-10T06:30:50;13.77;;;7.77;;
7767;SDS011;3928;42.626;23.382;2022-12-10T06:33:17;11.37;;;7.47;;
7767;SDS011;3928;42.626;23.382;2022-12-10T06:35:45;12.00;;;6.97;;
7767;SDS011;3928;42.626;23.382;2022-12-10T06:38:12;15.30;;;6.87;;
7767;SDS011;3928;42.626;23.382;2022-12-10T06:40:39;13.67;;;6.97;;
7767;SDS011;3928;42.626;23.382;2022-12-10T06:43:05;12.53;;;7.93;;
7767;SDS011;3928;42.626;23.382;2022-12-10T06:45:32;15.53;;;8.10;;
7767;SDS011;3928;42.626;23.382;2022-12-10T06:47:59;13.63;;;7.97;;
7767;SDS011;3928;42.626;23.382;2022-12-10T06:50:26;16.00;;;7.70;;
7767;SDS011;3928;42.626;23.382;2022-12-10T06:52:54;12.90;;;7.90;;
7767;SDS011;3928;42.626;23.382;2022-12-10T06:55:21;18.67;;;8.30;;
7767;SDS011;3928;42.626;23.382;2022-12-10T06:57:50;11.17;;;7.47;;
7767;SDS011;3928;42.626;23.382;2022-12-10T07:00:17;15.43;;;8.53;;
7767;SDS011;3928;42.626;23.382;2022-12-10T07:02:44;12.40;;;7.43;;
7767;SDS011;3928;42.626;23.382;2022-12-10T07:05:11;10.70;;;7.80;;
7767;SDS011;3928;42.626;23.382;2022-12-10T07:07:38;14.43;;;8.17;;
7767;SDS011;3928;42.626;23.382;2022-12-10T07:10:07;11.73;;;7.28;;
7767;SDS011;3928;42.626;23.382;2022-12-10T07:12:36;11.40;;;7.23;;
7767;SDS011;3928;42.626;23.382;2022-12-10T07:15:04;12.57;;;7.73;;
7767;SDS011;3928;42.626;23.382;2022-12-10T07:17:31;12.13;;;8.83;;
7767;SDS011;3928;42.626;23.382;2022-12-10T07:20:00;16.73;;;8.43;;
7767;SDS011;3928;42.626;23.382;2022-12-10T07:22:27;16.17;;;9.30;;
7767;SDS011;3928;42.626;23.382;2022-12-10T07:24:54;10.53;;;7.73;;
7767;SDS011;3928;42.626;23.382;2022-12-10T07:27:22;15.43;;;9.00;;
7767;SDS011;3928;42.626;23.382;2022-12-10T07:29:49;15.57;;;8.73;;
7767;SDS011;3928;42.626;23.382;2022-12-10T07:32:17;18.33;;;8.20;;
7767;SDS011;3928;42.626;23.382;2022-12-10T07:34:43;14.27;;;8.73;;
7767;SDS011;3928;42.626;23.382;2022-12-10T07:37:10;15.57;;;9.33;;
7767;SDS011;3928;42.626;23.382;2022-12-10T07:39:37;15.73;;;9.47;;
7767;SDS011;3928;42.626;23.382;2022-12-10T07:42:04;13.57;;;9.27;;
7767;SDS011;3928;42.626;23.382;2022-12-10T07:44:32;12.67;;;8.27;;
7767;SDS011;3928;42.626;23.382;2022-12-10T07:46:59;17.10;;;9.63;;
7767;SDS011;3928;42.626;23.382;2022-12-10T07:49:25;17.60;;;9.00;;
7767;SDS011;3928;42.626;23.382;2022-12-10T07:51:53;17.00;;;10.23;;
7767;SDS011;3928;42.626;23.382;2022-12-10T07:54:19;15.23;;;9.93;;
7767;SDS011;3928;42.626;23.382;2022-12-10T07:56:46;14.63;;;9.70;;
7767;SDS011;3928;42.626;23.382;2022-12-10T07:59:13;18.67;;;9.70;;
7767;SDS011;3928;42.626;23.382;2022-12-10T08:01:41;21.27;;;9.90;;
7767;SDS011;3928;42.626;23.382;2022-12-10T08:04:08;17.67;;;9.60;;
7767;SDS011;3928;42.626;23.382;2022-12-10T08:06:35;13.67;;;9.63;;
7767;SDS011;3928;42.626;23.382;2022-12-10T08:09:02;16.90;;;9.97;;
7767;SDS011;3928;42.626;23.382;2022-12-10T08:11:29;16.30;;;10.03;;
7767;SDS011;3928;42.626;23.382;2022-12-10T08:13:56;15.73;;;10.37;;
7767;SDS011;3928;42.626;23.382;2022-12-10T08:16:23;14.27;;;10.03;;
7767;SDS011;3928;42.626;23.382;2022-12-10T08:18:53;17.40;;;10.10;;
7767;SDS011;3928;42.626;23.382;2022-12-10T08:21:21;14.73;;;9.87;;
7767;SDS011;3928;42.626;23.382;2022-12-10T08:23:49;20.53;;;9.43;;
7767;SDS011;3928;42.626;23.382;2022-12-10T08:26:17;18.50;;;9.93;;
7767;SDS011;3928;42.626;23.382;2022-12-10T08:28:45;16.10;;;9.77;;
7767;SDS011;3928;42.626;23.382;2022-12-10T08:31:13;21.13;;;9.70;;
7767;SDS011;3928;42.626;23.382;2022-12-10T08:33:41;18.10;;;10.00;;
7767;SDS011;3928;42.626;23.382;2022-12-10T08:36:10;14.32;;;9.75;;
7767;SDS011;3928;42.626;23.382;2022-12-10T08:38:38;14.73;;;9.47;;
7767;SDS011;3928;42.626;23.382;2022-12-10T08:41:06;15.50;;;7.07;;
7767;SDS011;3928;42.626;23.382;2022-12-10T08:43:34;12.80;;;8.03;;
7767;SDS011;3928;42.626;23.382;2022-12-10T08:46:01;17.13;;;7.87;;
7767;SDS011;3928;42.626;23.382;2022-12-10T08:48:28;11.30;;;7.20;;
7767;SDS011;3928;42.626;23.382;2022-12-10T08:50:55;16.23;;;8.07;;
7767;SDS011;3928;42.626;23.382;2022-12-10T08:53:23;15.07;;;7.70;;
7767;SDS011;3928;42.626;23.382;2022-12-10T08:55:50;16.17;;;8.07;;
7767;SDS011;3928;42.626;23.382;2022-12-10T08:58:17;17.17;;;8.88;;
7767;SDS011;3928;42.626;23.382;2022-12-10T09:00:44;15.98;;;8.95;;
7767;SDS011;3928;42.626;23.382;2022-12-10T09:03:11;17.53;;;9.03;;
7767;SDS011;3928;42.626;23.382;2022-12-10T09:05:39;15.35;;;9.27;;
7767;SDS011;3928;42.626;23.382;2022-12-10T09:08:06;15.87;;;10.23;;
7767;SDS011;3928;42.626;23.382;2022-12-10T09:10:34;13.98;;;8.93;;
7767;SDS011;3928;42.626;23.382;2022-12-10T09:13:02;21.25;;;12.15;;
7767;SDS011;3928;42.626;23.382;2022-12-10T09:15:29;21.35;;;13.40;;
7767;SDS011;3928;42.626;23.382;2022-12-10T09:17:56;16.48;;;12.05;;
7767;SDS011;3928;42.626;23.382;2022-12-10T09:20:23;21.27;;;12.37;;
7767;SDS011;3928;42.626;23.382;2022-12-10T09:22:50;23.20;;;13.65;;
7767;SDS011;3928;42.626;23.382;2022-12-10T09:25:17;24.53;;;13.83;;
7767;SDS011;3928;42.626;23.382;2022-12-10T09:27:47;25.00;;;13.23;;
7767;SDS011;3928;42.626;23.382;2022-12-10T09:30:15;20.33;;;11.70;;
7767;SDS011;3928;42.626;23.382;2022-12-10T09:32:42;18.38;;;10.90;;
7767;SDS011;3928;42.626;23.382;2022-12-10T09:35:09;17.80;;;10.75;;
7767;SDS011;3928;42.626;23.382;2022-12-10T09:37:36;18.65;;;10.40;;
7767;SDS011;3928;42.626;23.382;2022-12-10T09:40:03;21.45;;;11.07;;
7767;SDS011;3928;42.626;23.382;2022-12-10T09:42:33;17.90;;;10.60;;
7767;SDS011;3928;42.626;23.382;2022-12-10T09:45:13;15.53;;;11.13;;
7767;SDS011;3928;42.626;23.382;2022-12-10T09:47:45;17.05;;;10.70;;
7767;SDS011;3928;42.626;23.382;2022-12-10T09:50:19;15.23;;;10.82;;
7767;SDS011;3928;42.626;23.382;2022-12-10T09:52:50;17.70;;;10.85;;
7767;SDS011;3928;42.626;23.382;2022-12-10T09:55:31;22.77;;;11.55;;
7767;SDS011;3928;42.626;23.382;2022-12-10T09:58:01;17.05;;;10.68;;
7767;SDS011;3928;42.626;23.382;2022-12-10T10:00:32;13.20;;;9.35;;
7767;SDS011;3928;42.626;23.382;2022-12-10T10:03:02;23.95;;;11.43;;
7767;SDS011;3928;42.626;23.382;2022-12-10T10:05:32;18.93;;;11.23;;
7767;SDS011;3928;42.626;23.382;2022-12-10T10:08:03;20.25;;;11.40;;
7767;SDS011;3928;42.626;23.382;2022-12-10T10:10:32;15.18;;;10.68;;
7767;SDS011;3928;42.626;23.382;2022-12-10T10:13:01;17.73;;;10.35;;
7767;SDS011;3928;42.626;23.382;2022-12-10T10:15:42;23.15;;;11.75;;
7767;SDS011;3928;42.626;23.382;2022-12-10T10:18:12;17.23;;;11.63;;
7767;SDS011;3928;42.626;23.382;2022-12-10T10:20:44;21.15;;;11.65;;
7767;SDS011;3928;42.626;23.382;2022-12-10T10:23:12;20.40;;;11.65;;
7767;SDS011;3928;42.626;23.382;2022-12-10T10:25:41;19.75;;;12.45;;
7767;SDS011;3928;42.626;23.382;2022-12-10T10:28:09;16.58;;;10.95;;
7767;SDS011;3928;42.626;23.382;2022-12-10T10:30:40;20.73;;;11.90;;
7767;SDS011;3928;42.626;23.382;2022-12-10T10:33:09;21.83;;;12.10;;
7767;SDS011;3928;42.626;23.382;2022-12-10T10:35:42;23.42;;;12.18;;
7767;SDS011;3928;42.626;23.382;2022-12-10T10:38:13;16.80;;;11.40;;
7767;SDS011;3928;42.626;23.382;2022-12-10T10:40:45;17.15;;;10.18;;
7767;SDS011;3928;42.626;23.382;2022-12-10T10:43:15;12.95;;;10.80;;
7767;SDS011;3928;42.626;23.382;2022-12-10T10:45:48;22.13;;;15.48;;
7767;SDS011;3928;42.626;23.382;2022-12-10T10:48:18;35.45;;;22.23;;
7767;SDS011;3928;42.626;23.382;2022-12-10T10:50:47;23.65;;;13.25;;
7767;SDS011;3928;42.626;23.382;2022-12-10T10:53:22;16.42;;;9.93;;
7767;SDS011;3928;42.626;23.382;2022-12-10T10:55:55;9.98;;;7.80;;
7767;SDS011;3928;42.626;23.382;2022-12-10T10:58:25;9.82;;;6.90;;
7767;SDS011;3928;42.626;23.382;2022-12-10T11:00:58;14.35;;;7.60;;
7767;SDS011;3928;42.626;23.382;2022-12-10T11:03:27;12.52;;;8.07;;
7767;SDS011;3928;42.626;23.382;2022-12-10T11:05:56;16.48;;;7.45;;
7767;SDS011;3928;42.626;23.382;2022-12-10T11:08:33;14.10;;;8.45;;
7767;SDS011;3928;42.626;23.382;2022-12-10T11:11:04;11.93;;;6.43;;
7767;SDS011;3928;42.626;23.382;2022-12-10T11:13:33;14.07;;;7.03;;
7767;SDS011;3928;42.626;23.382;2022-12-10T11:16:09;14.90;;;8.55;;
7767;SDS011;3928;42.626;23.382;2022-12-10T11:18:39;17.38;;;9.57;;
7767;SDS011;3928;42.626;23.382;2022-12-10T11:21:16;19.30;;;10.35;;
7767;SDS011;3928;42.626;23.382;2022-12-10T11:23:45;16.63;;;10.15;;
7767;SDS011;3928;42.626;23.382;2022-12-10T11:26:21;15.90;;;12.02;;
7767;SDS011;3928;42.626;23.382;2022-12-10T11:29:02;16.30;;;10.98;;
7767;SDS011;3928;42.626;23.382;2022-12-10T11:31:42;15.77;;;11.88;;
7767;SDS011;3928;42.626;23.382;2022-12-10T11:34:24;17.02;;;10.65;;
7767;SDS011;3928;42.626;23.382;2022-12-10T11:37:03;21.55;;;11.23;;
7767;SDS011;3928;42.626;23.382;2022-12-10T11:39:49;20.13;;;11.85;;
7767;SDS011;3928;42.626;23.382;2022-12-10T11:42:26;18.67;;;12.10;;
7767;SDS011;3928;42.626;23.382;2022-12-10T11:45:01;16.52;;;11.27;;
7767;SDS011;3928;42.626;23.382;2022-12-10T11:47:43;22.15;;;12.55;;
7767;SDS011;3928;42.626;23.382;2022-12-10T11:50:24;20.10;;;12.60;;
7767;SDS011;3928;42.626;23.382;2022-12-10T11:53:01;18.92;;;12.55;;
7767;SDS011;3928;42.626;23.382;2022-12-10T11:55:42;18.70;;;12.82;;
7767;SDS011;3928;42.626;23.382;2022-12-10T12:01:13;28.30;;;14.60;;
7767;SDS011;3928;42.626;23.382;2022-12-10T12:03:58;25.08;;;13.80;;
7767;SDS011;3928;42.626;23.382;2022-12-10T12:06:40;23.90;;;13.88;;
7767;SDS011;3928;42.626;23.382;2022-12-10T12:09:22;28.67;;;15.95;;
7767;SDS011;3928;42.626;23.382;2022-12-10T12:12:05;21.83;;;13.75;;
7767;SDS011;3928;42.626;23.382;2022-12-10T12:14:40;24.38;;;13.80;;
7767;SDS011;3928;42.626;23.382;2022-12-10T12:17:13;20.60;;;12.57;;
7767;SDS011;3928;42.626;23.382;2022-12-10T12:19:47;19.30;;;13.85;;
7767;SDS011;3928;42.626;23.382;2022-12-10T12:22:21;21.17;;;11.77;;
7767;SDS011;3928;42.626;23.382;2022-12-10T12:24:51;18.75;;;12.68;;
7767;SDS011;3928;42.626;23.382;2022-12-10T12:27:24;24.23;;;10.65;;
7767;SDS011;3928;42.626;23.382;2022-12-10T12:29:58;25.13;;;10.77;;
7767;SDS011;3928;42.626;23.382;2022-12-10T12:32:30;23.27;;;13.27;;
7767;SDS011;3928;42.626;23.382;2022-12-10T12:35:04;15.98;;;10.90;;
7767;SDS011;3928;42.626;23.382;2022-12-10T12:37:38;15.50;;;10.00;;
7767;SDS011;3928;42.626;23.382;2022-12-10T12:40:11;16.52;;;9.98;;
7767;SDS011;3928;42.626;23.382;2022-12-10T12:42:45;23.92;;;10.48;;
7767;SDS011;3928;42.626;23.382;2022-12-10T12:45:20;16.80;;;9.88;;
7767;SDS011;3928;42.626;23.382;2022-12-10T12:47:55;20.33;;;10.90;;
7767;SDS011;3928;42.626;23.382;2022-12-10T12:50:37;18.52;;;9.10;;
7767;SDS011;3928;42.626;23.382;2022-12-10T12:53:10;15.75;;;10.50;;
7767;SDS011;3928;42.626;23.382;2022-12-10T12:55:43;22.75;;;9.90;;
7767;SDS011;3928;42.626;23.382;2022-12-10T12:58:22;18.05;;;9.43;;
7767;SDS011;3928;42.626;23.382;2022-12-10T13:00:57;14.85;;;9.48;;
7767;SDS011;3928;42.626;23.382;2022-12-10T13:03:33;14.95;;;8.80;;
7767;SDS011;3928;42.626;23.382;2022-12-10T13:06:14;19.33;;;9.75;;
7767;SDS011;3928;42.626;23.382;2022-12-10T13:08:44;16.63;;;9.60;;
7767;SDS011;3928;42.626;23.382;2022-12-10T13:11:16;20.42;;;10.18;;
7767;SDS011;3928;42.626;23.382;2022-12-10T13:19:42;13.02;;;9.00;;
7767;SDS011;3928;42.626;23.382;2022-12-10T13:22:11;21.48;;;9.10;;
7767;SDS011;3928;42.626;23.382;2022-12-10T13:27:40;14.85;;;7.60;;
7767;SDS011;3928;42.626;23.382;2022-12-10T13:33:02;16.25;;;8.20;;
7767;SDS011;3928;42.626;23.382;2022-12-10T13:35:42;14.73;;;8.13;;
7767;SDS011;3928;42.626;23.382;2022-12-10T13:38:19;23.40;;;12.32;;
7767;SDS011;3928;42.626;23.382;2022-12-10T13:40:57;17.75;;;9.75;;
7767;SDS011;3928;42.626;23.382;2022-12-10T13:43:54;14.75;;;9.95;;
7767;SDS011;3928;42.626;23.382;2022-12-10T13:46:56;13.60;;;8.80;;
7767;SDS011;3928;42.626;23.382;2022-12-10T13:49:25;23.05;;;9.82;;
7767;SDS011;3928;42.626;23.382;2022-12-10T13:51:55;17.08;;;9.63;;
7767;SDS011;3928;42.626;23.382;2022-12-10T13:54:44;13.85;;;9.38;;
7767;SDS011;3928;42.626;23.382;2022-12-10T14:00:29;16.75;;;8.82;;
7767;SDS011;3928;42.626;23.382;2022-12-10T14:06:08;20.48;;;9.30;;
7767;SDS011;3928;42.626;23.382;2022-12-10T14:08:41;19.35;;;8.43;;
7767;SDS011;3928;42.626;23.382;2022-12-10T14:11:20;13.50;;;10.02;;
7767;SDS011;3928;42.626;23.382;2022-12-10T14:13:51;14.60;;;8.80;;
7767;SDS011;3928;42.626;23.382;2022-12-10T14:16:23;14.82;;;9.50;;
7767;SDS011;3928;42.626;23.382;2022-12-10T14:18:52;18.52;;;9.77;;
7767;SDS011;3928;42.626;23.382;2022-12-10T14:21:23;14.77;;;9.68;;
7767;SDS011;3928;42.626;23.382;2022-12-10T14:23:51;24.10;;;10.63;;
7767;SDS011;3928;42.626;23.382;2022-12-10T14:26:18;14.60;;;10.35;;
7767;SDS011;3928;42.626;23.382;2022-12-10T14:28:48;18.30;;;10.18;;
7767;SDS011;3928;42.626;23.382;2022-12-10T14:31:18;14.98;;;9.50;;
7767;SDS011;3928;42.626;23.382;2022-12-10T14:33:48;14.80;;;9.43;;
7767;SDS011;3928;42.626;23.382;2022-12-10T14:36:20;18.63;;;10.13;;
7767;SDS011;3928;42.626;23.382;2022-12-10T14:38:52;12.63;;;9.13;;
7767;SDS011;3928;42.626;23.382;2022-12-10T14:41:20;23.88;;;10.80;;
7767;SDS011;3928;42.626;23.382;2022-12-10T14:43:49;19.30;;;10.70;;
7767;SDS011;3928;42.626;23.382;2022-12-10T14:46:19;23.00;;;11.50;;
7767;SDS011;3928;42.626;23.382;2022-12-10T14:48:49;16.27;;;10.75;;
7767;SDS011;3928;42.626;23.382;2022-12-10T14:51:18;24.25;;;11.15;;
7767;SDS011;3928;42.626;23.382;2022-12-10T14:53:47;20.27;;;10.68;;
7767;SDS011;3928;42.626;23.382;2022-12-10T14:56:17;17.75;;;11.23;;
7767;SDS011;3928;42.626;23.382;2022-12-10T14:58:50;22.90;;;11.80;;
7767;SDS011;3928;42.626;23.382;2022-12-10T15:01:25;27.95;;;12.77;;
7767;SDS011;3928;42.626;23.382;2022-12-10T15:03:56;28.85;;;12.98;;
7767;SDS011;3928;42.626;23.382;2022-12-10T15:06:26;24.85;;;12.52;;
7767;SDS011;3928;42.626;23.382;2022-12-10T15:08:54;20.38;;;11.40;;
7767;SDS011;3928;42.626;23.382;2022-12-10T15:11:24;30.25;;;14.90;;
7767;SDS011;3928;42.626;23.382;2022-12-10T15:13:53;29.88;;;15.77;;
7767;SDS011;3928;42.626;23.382;2022-12-10T15:16:29;27.30;;;13.50;;
7767;SDS011;3928;42.626;23.382;2022-12-10T15:19:17;21.23;;;12.90;;
7767;SDS011;3928;42.626;23.382;2022-12-10T15:21:46;17.33;;;9.35;;
7767;SDS011;3928;42.626;23.382;2022-12-10T15:24:15;15.63;;;8.65;;
7767;SDS011;3928;42.626;23.382;2022-12-10T15:26:45;15.82;;;7.78;;